createdAt,value
2022-11-28T00:00:33.607Z,98510.75
2022-11-28T00:01:36.755Z,98515.38
2022-11-28T00:02:38.378Z,98503.34
2022-11-28T00:03:40.295Z,98514.59
2022-11-28T00:04:42.320Z,98511.50
2022-11-28T00:05:47.041Z,98515.22
2022-11-28T00:06:52.052Z,98521.97
2022-11-28T00:07:53.721Z,98530.28
2022-11-28T00:08:55.816Z,98524.72
2022-11-28T00:09:57.252Z,98526.59
2022-11-28T00:10:58.758Z,98521.03
2022-11-28T00:12:00.223Z,98521.34
2022-11-28T00:13:01.636Z,98519.19
2022-11-28T00:14:03.489Z,98507.97
2022-11-28T00:15:05.850Z,98499.53
2022-11-28T00:16:09.513Z,98499.19
2022-11-28T00:17:10.955Z,98495.50
2022-11-28T00:18:12.365Z,98497.66
2022-11-28T00:19:14.737Z,98500.91
2022-11-28T00:20:16.202Z,98496.31
2022-11-28T00:21:19.176Z,98501.06
2022-11-28T00:22:20.534Z,98499.53
2022-11-28T00:23:21.967Z,98498.44
2022-11-28T00:24:23.809Z,98489.84
2022-11-28T00:25:25.275Z,98491.22
2022-11-28T00:26:29.758Z,98501.81
2022-11-28T00:27:31.213Z,98494.75
2022-11-28T00:28:32.721Z,98493.22
2022-11-28T00:29:34.555Z,98498.13
2022-11-28T00:30:37.483Z,98490.75
2022-11-28T00:31:42.671Z,98492.59
2022-11-28T00:32:44.650Z,98496.75
2022-11-28T00:33:46.743Z,98492.59
2022-11-28T00:34:48.272Z,98486.63
2022-11-28T00:35:49.787Z,98481.06
2022-11-28T00:36:51.235Z,98483.38
2022-11-28T00:37:52.636Z,98476.75
2022-11-28T00:38:54.797Z,98476.44
2022-11-28T00:39:56.232Z,98474.59
2022-11-28T00:41:07.216Z,98479.69
2022-11-28T00:42:08.637Z,98479.97
2022-11-28T00:43:11.651Z,98467.69
2022-11-28T00:44:13.114Z,98467.84
2022-11-28T00:45:14.574Z,98458.00
2022-11-28T00:46:21.078Z,98454.63
2022-11-28T00:47:22.559Z,98452.66
2022-11-28T00:48:25.060Z,98448.78
2022-11-28T00:49:26.900Z,98441.88
2022-11-28T00:50:28.346Z,98436.81
2022-11-28T00:51:32.691Z,98440.19
2022-11-28T00:52:34.132Z,98438.84
2022-11-28T00:53:36.421Z,98431.16
2022-11-28T00:54:38.412Z,98436.69
2022-11-28T00:55:40.650Z,98437.44
2022-11-28T00:56:42.143Z,98430.41
2022-11-28T00:57:43.588Z,98427.78
2022-11-28T00:58:45.683Z,98427.31
2022-11-28T00:59:47.130Z,98434.81
2022-11-28T01:00:48.683Z,98434.06
2022-11-28T01:01:50.199Z,98438.84
2022-11-28T01:02:52.171Z,98431.63
2022-11-28T01:03:55.571Z,98431.63
2022-11-28T01:04:57.008Z,98432.69
2022-11-28T01:05:58.450Z,98429.00
2022-11-28T01:06:59.953Z,98432.69
2022-11-28T01:08:01.413Z,98431.94
2022-11-28T01:09:06.372Z,98436.69
2022-11-28T01:10:10.334Z,98442.88
2022-11-28T01:11:13.117Z,98439.63
2022-11-28T01:12:14.568Z,98442.06
2022-11-28T01:13:16.053Z,98435.03
2022-11-28T01:14:23.266Z,98437.16
2022-11-28T01:15:24.832Z,98424.25
2022-11-28T01:16:27.032Z,98429.94
2022-11-28T01:17:28.604Z,98429.63
2022-11-28T01:18:30.413Z,98429.63
2022-11-28T01:19:32.209Z,98427.31
2022-11-28T01:20:33.723Z,98420.41
2022-11-28T01:21:35.699Z,98417.34
2022-11-28T01:22:37.135Z,98420.72
2022-11-28T01:23:39.322Z,98416.28
2022-11-28T01:24:40.999Z,98417.03
2022-11-28T01:25:42.858Z,98414.75
2022-11-28T01:26:44.399Z,98414.41
2022-11-28T01:27:45.813Z,98400.75
2022-11-28T01:28:48.453Z,98401.97
2022-11-28T01:29:49.928Z,98389.22
2022-11-28T01:30:51.478Z,98389.53
2022-11-28T01:31:52.983Z,98385.06
2022-11-28T01:32:54.579Z,98384.59
2022-11-28T01:33:57.026Z,98382.63
2022-11-28T01:34:58.489Z,98384.47
2022-11-28T01:36:00.224Z,98377.09
2022-11-28T01:37:01.695Z,98382.94
2022-11-28T01:38:03.190Z,98390.31
2022-11-28T01:39:05.129Z,98397.38
2022-11-28T01:40:07.375Z,98387.56
2022-11-28T01:41:09.665Z,98395.09
2022-11-28T01:42:18.490Z,98389.41
2022-11-28T01:43:20.774Z,98382.97
2022-11-28T01:44:22.480Z,98384.19
2022-11-28T01:45:33.791Z,98377.75
2022-11-28T01:46:36.307Z,98362.50
2022-11-28T01:47:38.022Z,98366.53
2022-11-28T01:48:42.474Z,98357.28
2022-11-28T01:49:46.921Z,98357.16
2022-11-28T01:50:52.332Z,98356.38
2022-11-28T01:52:01.221Z,98345.31
2022-11-28T01:53:06.460Z,98349.13
2022-11-28T01:54:08.392Z,98348.38
2022-11-28T01:55:12.621Z,98356.84
2022-11-28T01:56:20.939Z,98346.41
2022-11-28T01:57:25.285Z,98346.25
2022-11-28T01:58:28.004Z,98347.00
2022-11-28T01:59:35.364Z,98333.03
2022-11-28T02:00:37.125Z,98330.84
2022-11-28T02:01:39.427Z,98328.88
2022-11-28T02:02:54.502Z,98330.25
2022-11-28T02:03:58.883Z,98331.38
2022-11-28T02:05:00.772Z,98312.63
2022-11-28T02:06:02.850Z,98314.31
2022-11-28T02:07:04.321Z,98312.47
2022-11-28T02:08:06.506Z,98311.84
2022-11-28T02:09:16.382Z,98313.84
2022-11-28T02:10:23.186Z,98321.06
2022-11-28T02:11:46.260Z,98323.22
2022-11-28T02:13:39.040Z,98334.91
2022-11-28T02:15:06.885Z,98339.22
2022-11-28T02:16:31.193Z,98337.53
2022-11-28T02:18:02.277Z,98340.13
2022-11-28T02:19:22.489Z,98342.59
2022-11-28T02:20:59.532Z,98342.91
2022-11-28T02:22:42.793Z,98340.75
2022-11-28T02:24:02.903Z,98344.56
2022-11-28T02:25:26.733Z,98345.06
2022-11-28T02:27:15.529Z,98347.66
2022-11-28T02:28:29.724Z,98348.59
2022-11-28T02:29:58.641Z,98350.56
2022-11-28T02:31:12.329Z,98340.28
2022-11-28T02:32:36.410Z,98342.88
2022-11-28T02:33:49.175Z,98334.75
2022-11-28T02:35:16.494Z,98324.47
2022-11-28T02:36:31.950Z,98311.88
2022-11-28T02:37:58.100Z,98298.34
2022-11-28T02:39:31.527Z,98283.03
2022-11-28T02:40:57.608Z,98280.59
2022-11-28T02:42:38.362Z,98282.75
2022-11-28T02:43:59.253Z,98285.66
2022-11-28T02:45:32.515Z,98279.06
2022-11-28T02:46:43.092Z,98285.50
2022-11-28T02:47:51.114Z,98290.44
2022-11-28T02:48:58.804Z,98286.72
2022-11-28T02:50:06.196Z,98277.53
2022-11-28T02:51:15.307Z,98275.03
2022-11-28T02:52:25.220Z,98275.84
2022-11-28T02:53:31.641Z,98269.06
2022-11-28T02:54:33.378Z,98255.91
2022-11-28T02:55:40.245Z,98272.16
2022-11-28T02:56:49.310Z,98264.78
2022-11-28T02:57:53.455Z,98256.34
2022-11-28T02:58:54.973Z,98254.66
2022-11-28T02:59:56.722Z,98252.66
2022-11-28T03:00:58.428Z,98255.25
2022-11-28T03:02:01.492Z,98259.88
2022-11-28T03:03:17.992Z,98261.56
2022-11-28T03:04:51.444Z,98269.22
2022-11-28T03:06:49.750Z,98280.91
2022-11-28T03:08:11.738Z,98281.47
2022-11-28T03:09:31.996Z,98280.25
2022-11-28T03:11:18.806Z,98280.25
2022-11-28T03:12:24.913Z,98276.09
2022-11-28T03:13:41.653Z,98268.69
2022-11-28T03:14:57.635Z,98271.00
2022-11-28T03:16:27.856Z,98261.63
2022-11-28T03:17:37.798Z,98266.84
2022-11-28T03:18:54.907Z,98261.38
2022-11-28T03:20:23.135Z,98257.53
2022-11-28T03:21:44.793Z,98247.06
2022-11-28T03:23:06.911Z,98245.66
2022-11-28T03:24:15.296Z,98237.41
2022-11-28T03:25:29.131Z,98228.34
2022-11-28T03:26:40.211Z,98231.72
2022-11-28T03:27:52.014Z,98225.22
2022-11-28T03:29:03.580Z,98228.91
2022-11-28T03:30:54.739Z,98235.78
2022-11-28T03:32:00.680Z,98238.69
2022-11-28T03:33:03.938Z,98241.88
2022-11-28T03:34:09.438Z,98248.34
2022-11-28T03:35:17.052Z,98238.50
2022-11-28T03:36:23.403Z,98236.56
2022-11-28T03:37:32.029Z,98237.47
2022-11-28T03:38:44.622Z,98222.66
2022-11-28T03:39:51.497Z,98223.91
2022-11-28T03:40:56.471Z,98225.09
2022-11-28T03:42:05.132Z,98224.81
2022-11-28T03:43:12.503Z,98227.09
2022-11-28T03:44:20.461Z,98228.50
2022-11-28T03:45:25.483Z,98223.38
2022-11-28T03:46:35.393Z,98221.69
2022-11-28T03:47:43.486Z,98218.13
2022-11-28T03:48:52.544Z,98217.81
2022-11-28T03:49:57.734Z,98213.28
2022-11-28T03:51:11.043Z,98213.28
2022-11-28T03:52:18.285Z,98208.53
2022-11-28T03:53:26.073Z,98214.19
2022-11-28T03:54:40.500Z,98212.66
2022-11-28T03:55:50.169Z,98214.34
2022-11-28T03:57:09.285Z,98218.34
2022-11-28T03:58:21.888Z,98229.09
2022-11-28T03:59:33.098Z,98238.19
2022-11-28T04:00:38.617Z,98236.31
2022-11-28T04:01:43.007Z,98239.38
2022-11-28T04:03:29.157Z,98249.22
2022-11-28T04:04:36.120Z,98251.97
2022-11-28T04:05:48.310Z,98255.00
2022-11-28T04:07:18.748Z,98257.28
2022-11-28T04:08:31.929Z,98246.22
2022-11-28T04:09:47.740Z,98245.13
2022-11-28T04:11:03.486Z,98238.50
2022-11-28T04:12:11.234Z,98232.63
2022-11-28T04:13:21.495Z,98227.41
2022-11-28T04:14:37.580Z,98224.16
2022-11-28T04:16:12.394Z,98213.84
2022-11-28T04:17:25.415Z,98208.75
2022-11-28T04:18:35.501Z,98211.66
2022-11-28T04:19:54.624Z,98209.91
2022-11-28T04:21:11.205Z,98207.28
2022-11-28T04:22:21.370Z,98213.75
2022-11-28T04:23:26.071Z,98212.75
2022-11-28T04:24:34.780Z,98210.13
2022-11-28T04:25:39.913Z,98208.72
2022-11-28T04:26:46.895Z,98213.47
2022-11-28T04:27:54.505Z,98210.38
2022-11-28T04:28:59.389Z,98219.31
2022-11-28T04:30:03.105Z,98203.03
2022-11-28T04:31:07.463Z,98197.63
2022-11-28T04:32:11.522Z,98199.88
2022-11-28T04:33:18.346Z,98203.69
2022-11-28T04:34:21.118Z,98201.84
2022-11-28T04:35:40.252Z,98205.69
2022-11-28T04:36:45.025Z,98209.47
2022-11-28T04:37:48.777Z,98202.31
2022-11-28T04:38:56.827Z,98199.34
2022-11-28T04:40:00.892Z,98199.03
2022-11-28T04:41:12.539Z,98209.28
2022-11-28T04:42:18.526Z,98209.19
2022-11-28T04:43:26.380Z,98214.41
2022-11-28T04:44:36.608Z,98215.66
2022-11-28T04:45:45.125Z,98218.41
2022-11-28T04:46:52.883Z,98239.13
2022-11-28T04:47:55.113Z,98246.53
2022-11-28T04:48:56.725Z,98247.31
2022-11-28T04:49:58.676Z,98247.31
2022-11-28T04:51:06.522Z,98254.69
2022-11-28T04:52:43.918Z,98253.03
2022-11-28T04:54:02.083Z,98252.78
2022-11-28T04:55:26.646Z,98243.06
2022-11-28T04:56:37.352Z,98242.63
2022-11-28T04:57:47.014Z,98242.16
2022-11-28T04:58:50.764Z,98244.66
2022-11-28T04:59:54.062Z,98244.50
2022-11-28T05:00:57.275Z,98241.41
2022-11-28T05:02:04.083Z,98238.53
2022-11-28T05:03:06.752Z,98246.97
2022-11-28T05:04:08.783Z,98242.16
2022-11-28T05:05:13.968Z,98237.13
2022-11-28T05:06:27.624Z,98237.28
2022-11-28T05:07:29.148Z,98234.03
2022-11-28T05:08:30.736Z,98229.69
2022-11-28T05:09:33.065Z,98229.88
2022-11-28T05:10:35.046Z,98225.88
2022-11-28T05:11:36.493Z,98235.09
2022-11-28T05:12:38.295Z,98236.50
2022-11-28T05:13:40.214Z,98228.81
2022-11-28T05:14:41.916Z,98228.63
2022-11-28T05:15:44.093Z,98216.75
2022-11-28T05:16:45.638Z,98212.00
2022-11-28T05:17:47.175Z,98207.81
2022-11-28T05:18:48.990Z,98206.09
2022-11-28T05:19:50.545Z,98192.41
2022-11-28T05:20:52.469Z,98194.25
2022-11-28T05:21:53.927Z,98183.34
2022-11-28T05:22:55.401Z,98178.19
2022-11-28T05:23:56.891Z,98168.88
2022-11-28T05:24:58.426Z,98157.97
2022-11-28T05:25:59.845Z,98165.69
2022-11-28T05:27:01.263Z,98173.72
2022-11-28T05:28:02.707Z,98171.63
2022-11-28T05:29:05.602Z,98166.44
2022-11-28T05:30:07.725Z,98172.28
2022-11-28T05:31:09.247Z,98167.19
2022-11-28T05:32:11.190Z,98153.50
2022-11-28T05:33:12.619Z,98138.50
2022-11-28T05:34:14.243Z,98134.06
2022-11-28T05:35:15.832Z,98141.44
2022-11-28T05:36:18.582Z,98137.78
2022-11-28T05:37:20.016Z,98145.19
2022-11-28T05:38:21.442Z,98146.72
2022-11-28T05:39:23.003Z,98148.88
2022-11-28T05:40:25.073Z,98154.09
2022-11-28T05:41:29.066Z,98150.84
2022-11-28T05:42:34.561Z,98138.25
2022-11-28T05:43:36.755Z,98151.28
2022-11-28T05:44:39.222Z,98138.22
2022-11-28T05:45:42.334Z,98136.56
2022-11-28T05:46:43.810Z,98134.41
2022-11-28T05:47:45.280Z,98132.28
2022-11-28T05:48:46.739Z,98128.25
2022-11-28T05:49:48.743Z,98122.41
2022-11-28T05:50:50.880Z,98130.69
2022-11-28T05:51:52.374Z,98113.72
2022-11-28T05:52:53.813Z,98116.94
2022-11-28T05:53:55.612Z,98119.88
2022-11-28T05:54:57.622Z,98114.66
2022-11-28T05:56:00.106Z,98124.31
2022-11-28T05:57:02.829Z,98123.03
2022-11-28T05:58:04.379Z,98126.59
2022-11-28T05:59:05.855Z,98123.69
2022-11-28T06:00:07.950Z,98135.84
2022-11-28T06:01:18.466Z,98139.63
2022-11-28T06:02:20.527Z,98131.66
2022-11-28T06:03:22.054Z,98131.38
2022-11-28T06:04:23.601Z,98130.53
2022-11-28T06:05:41.558Z,98116.09
2022-11-28T06:06:43.994Z,98114.88
2022-11-28T06:07:46.359Z,98124.69
2022-11-28T06:08:49.382Z,98142.66
2022-11-28T06:09:51.315Z,98163.53
2022-11-28T06:10:59.980Z,98177.69
2022-11-28T06:12:01.555Z,98176.50
2022-11-28T06:13:03.145Z,98163.53
2022-11-28T06:14:04.826Z,98161.41
2022-11-28T06:15:07.148Z,98184.50
2022-11-28T06:16:12.545Z,98184.78
2022-11-28T06:17:17.198Z,98186.59
2022-11-28T06:18:18.666Z,98177.69
2022-11-28T06:19:20.108Z,98166.16
2022-11-28T06:20:21.682Z,98161.22
2022-11-28T06:21:23.734Z,98167.00
2022-11-28T06:22:25.363Z,98172.22
2022-11-28T06:23:27.340Z,98159.22
2022-11-28T06:24:28.887Z,98154.56
2022-11-28T06:25:30.389Z,98151.16
2022-11-28T06:26:31.807Z,98156.06
2022-11-28T06:27:35.221Z,98163.59
2022-11-28T06:28:37.508Z,98172.63
2022-11-28T06:29:38.953Z,98166.78
2022-11-28T06:30:43.224Z,98164.72
2022-11-28T06:31:44.732Z,98177.16
2022-11-28T06:32:46.381Z,98185.16
2022-11-28T06:33:48.887Z,98192.22
2022-11-28T06:34:50.398Z,98188.38
2022-11-28T06:35:52.026Z,98175.00
2022-11-28T06:36:53.969Z,98173.59
2022-11-28T06:37:55.403Z,98166.97
2022-11-28T06:38:57.516Z,98168.19
2022-11-28T06:39:59.757Z,98170.41
2022-11-28T06:41:05.483Z,98175.50
2022-11-28T06:42:07.476Z,98181.50
2022-11-28T06:43:08.919Z,98174.44
2022-11-28T06:44:14.003Z,98166.91
2022-11-28T06:45:15.544Z,98163.19
2022-11-28T06:46:21.659Z,98159.13
2022-11-28T06:47:23.762Z,98162.63
2022-11-28T06:48:25.643Z,98162.75
2022-11-28T06:49:27.848Z,98163.34
2022-11-28T06:50:29.273Z,98165.94
2022-11-28T06:51:30.847Z,98170.41
2022-11-28T06:52:32.252Z,98161.47
2022-11-28T06:53:34.393Z,98170.09
2022-11-28T06:54:35.782Z,98178.88
2022-11-28T06:55:37.351Z,98179.34
2022-11-28T06:56:41.740Z,98183.81
2022-11-28T06:57:43.881Z,98187.44
2022-11-28T06:58:46.054Z,98171.16
2022-11-28T06:59:48.599Z,98171.38
2022-11-28T07:00:50.126Z,98163.19
2022-11-28T07:01:52.102Z,98165.19
2022-11-28T07:02:56.514Z,98153.34
2022-11-28T07:03:58.107Z,98149.50
2022-11-28T07:04:59.603Z,98141.34
2022-11-28T07:06:02.438Z,98143.38
2022-11-28T07:07:03.906Z,98141.66
2022-11-28T07:08:08.790Z,98152.13
2022-11-28T07:09:10.314Z,98167.03
2022-11-28T07:10:12.826Z,98173.03
2022-11-28T07:11:20.432Z,98182.16
2022-11-28T07:12:21.872Z,98181.50
2022-11-28T07:13:24.664Z,98173.34
2022-11-28T07:14:26.739Z,98164.41
2022-11-28T07:15:28.331Z,98159.75
2022-11-28T07:16:32.108Z,98149.81
2022-11-28T07:17:34.587Z,98151.69
2022-11-28T07:18:36.871Z,98150.91
2022-11-28T07:19:39.086Z,98159.06
2022-11-28T07:20:40.615Z,98150.03
2022-11-28T07:21:42.967Z,98142.09
2022-11-28T07:22:46.870Z,98137.66
2022-11-28T07:23:48.862Z,98140.13
2022-11-28T07:24:50.705Z,98145.34
2022-11-28T07:25:58.876Z,98141.88
2022-11-28T07:27:00.346Z,98149.91
2022-11-28T07:28:01.943Z,98142.06
2022-11-28T07:29:06.268Z,98150.53
2022-11-28T07:30:08.874Z,98159.56
2022-11-28T07:31:16.452Z,98159.13
2022-11-28T07:32:18.659Z,98170.00
2022-11-28T07:33:20.228Z,98178.31
2022-11-28T07:34:21.753Z,98188.00
2022-11-28T07:35:23.304Z,98179.50
2022-11-28T07:36:27.543Z,98175.00
2022-11-28T07:37:28.988Z,98177.59
2022-11-28T07:38:31.929Z,98177.94
2022-11-28T07:39:33.423Z,98185.16
2022-11-28T07:40:34.954Z,98188.63
2022-11-28T07:41:37.271Z,98185.25
2022-11-28T07:42:38.916Z,98190.63
2022-11-28T07:43:42.927Z,98189.53
2022-11-28T07:44:45.506Z,98189.66
2022-11-28T07:46:00.428Z,98186.28
2022-11-28T07:47:02.776Z,98195.66
2022-11-28T07:48:04.713Z,98197.63
2022-11-28T07:49:06.132Z,98199.59
2022-11-28T07:50:08.318Z,98205.72
2022-11-28T07:51:12.797Z,98197.69
2022-11-28T07:52:14.767Z,98204.47
2022-11-28T07:53:16.353Z,98186.53
2022-11-28T07:54:17.914Z,98184.75
2022-11-28T07:55:19.401Z,98181.69
2022-11-28T07:56:23.685Z,98181.25
2022-11-28T07:57:25.210Z,98187.56
2022-11-28T07:58:26.901Z,98177.72
2022-11-28T07:59:28.384Z,98183.84
2022-11-28T08:00:29.965Z,98172.19
2022-11-28T08:01:36.544Z,98168.16
2022-11-28T08:02:39.912Z,98167.53
2022-11-28T08:03:42.481Z,98170.47
2022-11-28T08:04:48.573Z,98162.63
2022-11-28T08:05:52.985Z,98158.47
2022-11-28T08:06:54.482Z,98153.91
2022-11-28T08:07:56.001Z,98157.06
2022-11-28T08:09:00.586Z,98153.91
2022-11-28T08:10:17.078Z,98167.94
2022-11-28T08:11:20.337Z,98179.91
2022-11-28T08:12:21.792Z,98177.28
2022-11-28T08:13:23.670Z,98176.53
2022-11-28T08:14:25.599Z,98182.19
2022-11-28T08:15:31.116Z,98184.19
2022-11-28T08:16:33.122Z,98186.94
2022-11-28T08:17:35.466Z,98177.78
2022-11-28T08:18:38.228Z,98183.47
2022-11-28T08:19:39.793Z,98190.44
2022-11-28T08:20:41.242Z,98193.31
2022-11-28T08:21:42.963Z,98193.75
2022-11-28T08:22:44.471Z,98193.47
2022-11-28T08:23:46.255Z,98188.91
2022-11-28T08:24:47.751Z,98180.69
2022-11-28T08:25:49.187Z,98173.84
2022-11-28T08:26:50.621Z,98181.63
2022-11-28T08:27:52.374Z,98178.53
2022-11-28T08:28:54.294Z,98179.09
2022-11-28T08:29:55.699Z,98184.19
2022-11-28T08:30:57.539Z,98178.44
2022-11-28T08:31:59.065Z,98184.81
2022-11-28T08:33:00.871Z,98172.97
2022-11-28T08:34:05.994Z,98177.72
2022-11-28T08:35:07.777Z,98170.97
2022-11-28T08:36:11.631Z,98169.81
2022-11-28T08:37:13.063Z,98160.25
2022-11-28T08:38:14.522Z,98167.97
2022-11-28T08:39:23.912Z,98169.72
2022-11-28T08:40:26.442Z,98169.75
2022-11-28T08:41:27.926Z,98164.97
2022-11-28T08:42:30.305Z,98170.38
2022-11-28T08:43:34.397Z,98168.44
2022-11-28T08:44:36.716Z,98165.44
2022-11-28T08:45:38.485Z,98168.44
2022-11-28T08:46:39.952Z,98171.84
2022-11-28T08:47:41.703Z,98164.41
2022-11-28T08:48:43.495Z,98168.22
2022-11-28T08:49:45.187Z,98168.38
2022-11-28T08:50:50.273Z,98168.88
2022-11-28T08:51:51.929Z,98175.78
2022-11-28T08:52:53.704Z,98176.78
2022-11-28T08:53:59.299Z,98179.00
2022-11-28T08:55:01.041Z,98175.97
2022-11-28T08:56:03.619Z,98173.91
2022-11-28T08:57:05.574Z,98176.34
2022-11-28T08:58:06.989Z,98184.31
2022-11-28T08:59:09.681Z,98184.13
2022-11-28T09:00:11.782Z,98190.03
2022-11-28T09:01:22.220Z,98190.94
2022-11-28T09:02:26.086Z,98180.78
2022-11-28T09:03:28.967Z,98184.34
2022-11-28T09:04:30.409Z,98182.50
2022-11-28T09:05:32.431Z,98174.03
2022-11-28T09:06:33.849Z,98180.00
2022-11-28T09:07:35.449Z,98183.28
2022-11-28T09:08:36.937Z,98180.94
2022-11-28T09:09:38.452Z,98180.34
2022-11-28T09:10:41.191Z,98179.97
2022-11-28T09:11:42.796Z,98186.72
2022-11-28T09:12:44.221Z,98186.06
2022-11-28T09:13:46.618Z,98187.09
2022-11-28T09:14:48.194Z,98185.97
2022-11-28T09:15:52.701Z,98185.38
2022-11-28T09:16:55.613Z,98183.94
2022-11-28T09:17:57.048Z,98178.06
2022-11-28T09:18:59.447Z,98182.50
2022-11-28T09:20:00.850Z,98176.78
2022-11-28T09:21:05.827Z,98179.19
2022-11-28T09:22:07.994Z,98181.72
2022-11-28T09:23:10.157Z,98177.06
2022-11-28T09:24:14.039Z,98174.09
2022-11-28T09:25:15.804Z,98178.25
2022-11-28T09:26:20.707Z,98169.06
2022-11-28T09:27:22.203Z,98180.63
2022-11-28T09:28:24.378Z,98175.72
2022-11-28T09:29:26.691Z,98171.69
2022-11-28T09:30:28.646Z,98165.38
2022-11-28T09:31:30.356Z,98171.69
2022-11-28T09:32:32.622Z,98168.75
2022-11-28T09:33:34.846Z,98163.84
2022-11-28T09:34:36.319Z,98159.06
2022-11-28T09:35:44.264Z,98162.00
2022-11-28T09:36:49.219Z,98165.78
2022-11-28T09:37:53.449Z,98163.69
2022-11-28T09:38:54.851Z,98160.63
2022-11-28T09:40:12.512Z,98161.63
2022-11-28T09:41:39.836Z,98157.97
2022-11-28T09:42:44.148Z,98162.38
2022-11-28T09:43:52.014Z,98162.66
2022-11-28T09:45:03.036Z,98154.59
2022-11-28T09:46:07.902Z,98156.25
2022-11-28T09:47:18.280Z,98143.28
2022-11-28T09:48:33.064Z,98152.25
2022-11-28T09:49:45.066Z,98142.66
2022-11-28T09:50:47.192Z,98148.53
2022-11-28T09:51:57.368Z,98149.63
2022-11-28T09:53:13.678Z,98151.69
2022-11-28T09:54:47.091Z,98154.09
2022-11-28T09:56:00.072Z,98156.50
2022-11-28T09:57:03.655Z,98162.50
2022-11-28T09:58:16.814Z,98161.66
2022-11-28T09:59:29.945Z,98155.63
2022-11-28T10:00:52.626Z,98161.66
2022-11-28T10:02:40.661Z,98160.31
2022-11-28T10:04:10.827Z,98164.56
2022-11-28T10:05:38.131Z,98158.78
2022-11-28T10:06:48.627Z,98157.47
2022-11-28T10:08:23.455Z,98156.06
2022-11-28T10:09:30.721Z,98156.41
2022-11-28T10:10:55.394Z,98153.22
2022-11-28T10:12:18.725Z,98155.41
2022-11-28T10:14:07.297Z,98152.16
2022-11-28T10:15:15.833Z,98161.38
2022-11-28T10:16:20.249Z,98162.59
2022-11-28T10:17:38.200Z,98162.66
2022-11-28T10:18:56.708Z,98161.47
2022-11-28T10:20:10.603Z,98164.31
2022-11-28T10:21:39.047Z,98165.13
2022-11-28T10:22:53.495Z,98163.16
2022-11-28T10:24:01.923Z,98163.38
2022-11-28T10:25:18.876Z,98160.00
2022-11-28T10:26:29.072Z,98165.31
2022-11-28T10:27:35.259Z,98159.00
2022-11-28T10:28:41.667Z,98162.63
2022-11-28T10:29:51.922Z,98156.59
2022-11-28T10:31:06.815Z,98151.47
2022-11-28T10:32:14.547Z,98159.00
2022-11-28T10:33:25.264Z,98160.84
2022-11-28T10:34:31.828Z,98159.22
2022-11-28T10:35:46.475Z,98150.72
2022-11-28T10:36:57.028Z,98153.47
2022-11-28T10:37:59.148Z,98156.19
2022-11-28T10:39:12.926Z,98157.06
2022-11-28T10:40:32.758Z,98153.69
2022-11-28T10:41:40.515Z,98152.41
2022-11-28T10:42:52.369Z,98152.91
2022-11-28T10:44:26.706Z,98149.88
2022-11-28T10:46:05.409Z,98151.91
2022-11-28T10:47:34.715Z,98147.63
2022-11-28T10:49:05.201Z,98146.34
2022-11-28T10:50:18.830Z,98161.75
2022-11-28T10:51:35.371Z,98144.28
2022-11-28T10:52:50.516Z,98148.50
2022-11-28T10:54:00.029Z,98153.97
2022-11-28T10:55:37.305Z,98149.09
2022-11-28T10:57:00.449Z,98150.53
2022-11-28T10:58:19.667Z,98155.78
2022-11-28T10:59:58.748Z,98163.88
2022-11-28T11:01:01.171Z,98171.75
2022-11-28T11:02:20.494Z,98176.41
2022-11-28T11:03:28.580Z,98174.69
2022-11-28T11:04:39.416Z,98161.59
2022-11-28T11:05:41.416Z,98168.22
2022-11-28T11:07:06.951Z,98165.94
2022-11-28T11:08:21.128Z,98171.41
2022-11-28T11:09:22.887Z,98171.41
2022-11-28T11:10:37.495Z,98164.88
2022-11-28T11:11:57.591Z,98159.59
2022-11-28T11:13:00.090Z,98160.34
2022-11-28T11:14:04.450Z,98159.22
2022-11-28T11:15:22.024Z,98156.50
2022-11-28T11:16:23.789Z,98163.72
2022-11-28T11:17:35.905Z,98164.16
2022-11-28T11:18:53.078Z,98169.50
2022-11-28T11:19:54.544Z,98156.78
2022-11-28T11:21:16.725Z,98155.47
2022-11-28T11:22:22.351Z,98170.63
2022-11-28T11:23:24.637Z,98170.13
2022-11-28T11:24:26.273Z,98164.69
2022-11-28T11:25:31.452Z,98151.41
2022-11-28T11:26:38.155Z,98154.06
2022-11-28T11:27:52.339Z,98157.66
2022-11-28T11:28:54.999Z,98148.94
2022-11-28T11:29:56.482Z,98153.84
2022-11-28T11:31:03.559Z,98148.44
2022-11-28T11:32:16.541Z,98141.72
2022-11-28T11:33:18.591Z,98134.97
2022-11-28T11:34:22.572Z,98128.63
2022-11-28T11:35:35.952Z,98135.94
2022-11-28T11:36:37.632Z,98123.38
2022-11-28T11:37:39.105Z,98137.13
2022-11-28T11:38:41.110Z,98133.66
2022-11-28T11:39:53.335Z,98127.63
2022-11-28T11:40:55.195Z,98126.19
2022-11-28T11:41:59.615Z,98129.16
2022-11-28T11:43:01.510Z,98124.69
2022-11-28T11:44:34.523Z,98128.25
2022-11-28T11:45:36.647Z,98128.25
2022-11-28T11:46:51.636Z,98118.97
2022-11-28T11:47:53.855Z,98123.00
2022-11-28T11:48:55.312Z,98129.47
2022-11-28T11:50:05.306Z,98131.56
2022-11-28T11:51:20.720Z,98135.06
2022-11-28T11:52:25.620Z,98126.91
2022-11-28T11:53:27.421Z,98132.44
2022-11-28T11:54:29.001Z,98136.06
2022-11-28T11:55:36.352Z,98135.63
2022-11-28T11:56:40.240Z,98134.19
2022-11-28T11:57:53.003Z,98137.78
2022-11-28T11:58:58.451Z,98141.28
2022-11-28T12:00:07.000Z,98141.56
2022-11-28T12:01:12.026Z,98141.34
2022-11-28T12:02:37.236Z,98137.09
2022-11-28T12:04:30.585Z,98137.31
2022-11-28T12:06:06.476Z,98133.78
2022-11-28T12:07:26.970Z,98144.03
2022-11-28T12:08:47.958Z,98144.56
2022-11-28T12:09:54.506Z,98150.91
2022-11-28T12:11:02.131Z,98150.16
2022-11-28T12:12:16.744Z,98146.94
2022-11-28T12:13:22.017Z,98144.78
2022-11-28T12:14:31.617Z,98134.19
2022-11-28T12:15:46.327Z,98141.81
2022-11-28T12:17:46.734Z,98143.66
2022-11-28T12:19:14.450Z,98150.97
2022-11-28T12:20:28.026Z,98147.16
2022-11-28T12:21:49.643Z,98147.91
2022-11-28T12:23:17.759Z,98133.66
2022-11-28T12:25:02.132Z,98125.25
2022-11-28T12:27:03.699Z,98115.53
2022-11-28T12:28:24.077Z,98111.94
2022-11-28T12:29:48.704Z,98105.53
2022-11-28T12:31:29.497Z,98107.47
2022-11-28T12:32:49.139Z,98109.31
2022-11-28T12:34:01.471Z,98119.81
2022-11-28T12:35:24.262Z,98113.38
2022-11-28T12:36:25.719Z,98113.16
2022-11-28T12:38:09.756Z,98105.72
2022-11-28T12:39:38.027Z,98108.88
2022-11-28T12:40:55.785Z,98110.16
2022-11-28T12:42:09.562Z,98110.16
2022-11-28T12:43:41.640Z,98106.19
2022-11-28T12:45:11.976Z,98109.25
2022-11-28T12:46:50.342Z,98112.53
2022-11-28T12:48:07.282Z,98107.19
2022-11-28T12:49:14.881Z,98108.31
2022-11-28T12:50:25.585Z,98104.56
2022-11-28T12:51:56.274Z,98104.34
2022-11-28T12:53:24.218Z,98104.41
2022-11-28T12:54:25.612Z,98107.38
2022-11-28T12:55:51.579Z,98100.81
2022-11-28T12:57:13.593Z,98101.66
2022-11-28T12:58:30.683Z,98098.91
2022-11-28T12:59:40.128Z,98098.56
2022-11-28T13:01:04.313Z,98097.22
2022-11-28T13:02:35.526Z,98100.16
2022-11-28T13:03:42.592Z,98098.94
2022-11-28T13:04:47.132Z,98097.31
2022-11-28T13:06:13.945Z,98099.63
2022-11-28T13:07:39.751Z,98099.72
2022-11-28T13:08:50.333Z,98096.09
2022-11-28T13:10:19.597Z,98093.13
2022-11-28T13:11:25.983Z,98097.38
2022-11-28T13:12:45.830Z,98096.81
2022-11-28T13:13:56.285Z,98100.63
2022-11-28T13:15:03.008Z,98099.72
2022-11-28T13:16:26.608Z,98097.19
2022-11-28T13:17:47.223Z,98098.59
2022-11-28T13:18:54.429Z,98101.78
2022-11-28T13:20:12.531Z,98102.41
2022-11-28T13:21:19.790Z,98100.31
2022-11-28T13:22:27.079Z,98099.81